Time;durP1;ratioP1;P1;durP2;ratioP2;P2;SDS_P1;SDS_P2;PMS_P1;PMS_P2;Temp;Humidity;BMP_temperature;BMP_pressure;BME280_temperature;BME280_humidity;BME280_pressure;Samples;Min_cycle;Max_cycle;Signal;HPM_P1;HPM_P2
2020/12/12 00:01:29;;;;;;;50.93;24.87;;;;;;;;;;6249279;23;20394;-74
2020/12/12 00:03:57;;;;;;;45.00;21.90;;;;;;;;;;6249204;23;20467;-74
2020/12/12 00:06:30;;;;;;;47.70;22.20;;;;;;;;;;6248996;23;20517;-75
2020/12/12 00:08:59;;;;;;;41.13;23.40;;;;;;;;;;6248588;23;20423;-74
2020/12/12 00:11:26;;;;;;;41.83;24.60;;;;;;;;;;6249019;23;20389;-74
2020/12/12 00:13:53;;;;;;;49.93;24.40;;;;;;;;;;6247918;23;20414;-76
2020/12/12 00:16:21;;;;;;;42.60;22.00;;;;;;;;;;6248411;23;20393;-74
2020/12/12 00:18:48;;;;;;;44.43;23.07;;;;;;;;;;6247725;23;20432;-75
2020/12/12 00:21:21;;;;;;;43.80;23.80;;;;;;;;;;6247930;23;20420;-75
2020/12/12 00:23:49;;;;;;;44.70;22.70;;;;;;;;;;6249030;23;20482;-74
2020/12/12 00:26:19;;;;;;;47.07;21.70;;;;;;;;;;6248704;23;20433;-74
2020/12/12 00:28:47;;;;;;;51.93;23.53;;;;;;;;;;6247818;23;20557;-74
2020/12/12 00:31:16;;;;;;;44.27;24.17;;;;;;;;;;6248115;23;20496;-74
2020/12/12 00:33:49;;;;;;;48.23;24.17;;;;;;;;;;6248633;23;20413;-74
2020/12/12 00:36:16;;;;;;;38.73;23.10;;;;;;;;;;6248381;23;20489;-74
2020/12/12 00:38:44;;;;;;;43.13;22.67;;;;;;;;;;6248624;23;20413;-75
2020/12/12 00:41:12;;;;;;;44.53;22.97;;;;;;;;;;6248421;23;20401;-74
2020/12/12 00:43:42;;;;;;;39.67;21.63;;;;;;;;;;6246256;23;20414;-74
2020/12/12 00:46:09;;;;;;;37.10;22.83;;;;;;;;;;6248258;23;21009;-75
2020/12/12 00:48:37;;;;;;;38.53;21.70;;;;;;;;;;6249116;23;20793;-74
2020/12/12 00:51:05;;;;;;;39.97;21.03;;;;;;;;;;6248413;23;20418;-74
2020/12/12 00:53:32;;;;;;;37.33;20.50;;;;;;;;;;6248811;23;20419;-73
2020/12/12 00:56:00;;;;;;;43.57;20.97;;;;;;;;;;6248623;23;20445;-75
2020/12/12 00:58:27;;;;;;;40.90;24.57;;;;;;;;;;6248726;23;20418;-74
2020/12/12 01:00:56;;;;;;;42.33;23.47;;;;;;;;;;6248208;23;20493;-74
2020/12/12 01:03:23;;;;;;;45.80;24.37;;;;;;;;;;6248191;23;20453;-75
2020/12/12 01:05:50;;;;;;;44.80;23.20;;;;;;;;;;6247543;23;20405;-74
2020/12/12 01:08:18;;;;;;;45.40;22.47;;;;;;;;;;6247583;23;20644;-75
2020/12/12 01:10:45;;;;;;;46.77;23.13;;;;;;;;;;6247307;23;20998;-74
2020/12/12 01:13:15;;;;;;;41.40;21.90;;;;;;;;;;6248976;23;20421;-73
2020/12/12 01:15:43;;;;;;;44.80;23.97;;;;;;;;;;6248723;23;20393;-74
2020/12/12 01:18:11;;;;;;;41.60;23.53;;;;;;;;;;6248483;23;20445;-74
2020/12/12 01:20:39;;;;;;;38.17;22.27;;;;;;;;;;6247601;23;20468;-74
2020/12/12 01:23:10;;;;;;;41.60;21.87;;;;;;;;;;6247971;23;20418;-74
2020/12/12 01:25:38;;;;;;;38.53;21.30;;;;;;;;;;6247747;23;20390;-75
2020/12/12 01:28:05;;;;;;;42.80;21.93;;;;;;;;;;6247746;23;20461;-74
2020/12/12 01:30:32;;;;;;;45.60;23.43;;;;;;;;;;6247755;23;20390;-74
2020/12/12 01:33:00;;;;;;;52.07;25.27;;;;;;;;;;6247386;23;20830;-73
2020/12/12 01:35:28;;;;;;;46.47;22.07;;;;;;;;;;6248200;22;20402;-74
2020/12/12 01:37:56;;;;;;;40.80;22.67;;;;;;;;;;6249213;23;20413;-74
2020/12/12 01:40:23;;;;;;;48.77;25.10;;;;;;;;;;6248159;23;20393;-74
2020/12/12 01:42:50;;;;;;;40.00;22.53;;;;;;;;;;6247172;23;20849;-73
2020/12/12 01:45:21;;;;;;;45.10;21.27;;;;;;;;;;6247705;23;20677;-75
2020/12/12 01:47:52;;;;;;;38.63;21.17;;;;;;;;;;6247837;23;20719;-74
2020/12/12 01:50:19;;;;;;;45.80;23.63;;;;;;;;;;6248229;23;20390;-74
2020/12/12 01:52:50;;;;;;;39.90;21.87;;;;;;;;;;6248491;23;20406;-74
2020/12/12 01:55:19;;;;;;;41.20;21.40;;;;;;;;;;6248877;23;20540;-73
2020/12/12 01:57:49;;;;;;;45.07;22.17;;;;;;;;;;6248215;23;20606;-74
2020/12/12 02:00:16;;;;;;;44.67;22.07;;;;;;;;;;6248054;23;20793;-74
2020/12/12 02:02:47;;;;;;;46.50;23.93;;;;;;;;;;6247842;23;20412;-74
2020/12/12 02:05:38;;;;;;;48.27;22.43;;;;;;;;;;6247799;23;20506;-74
2020/12/12 02:08:16;;;;;;;52.00;22.87;;;;;;;;;;6248733;23;20552;-73
2020/12/12 02:10:45;;;;;;;43.27;24.17;;;;;;;;;;6247714;23;20401;-74
2020/12/12 02:13:13;;;;;;;41.33;23.27;;;;;;;;;;6248527;23;20460;-74
2020/12/12 02:15:41;;;;;;;44.97;22.93;;;;;;;;;;6247986;23;20408;-74
2020/12/12 02:18:12;;;;;;;39.20;21.40;;;;;;;;;;6248119;23;20845;-74
2020/12/12 02:20:41;;;;;;;43.80;24.57;;;;;;;;;;6247451;23;20445;-74
2020/12/12 02:23:12;;;;;;;43.70;22.20;;;;;;;;;;6247612;23;20472;-74
2020/12/12 02:25:39;;;;;;;36.63;18.43;;;;;;;;;;6247944;23;20410;-75
2020/12/12 02:28:11;;;;;;;43.87;21.83;;;;;;;;;;6248071;23;20453;-74
2020/12/12 02:30:39;;;;;;;42.80;23.90;;;;;;;;;;6248280;23;20398;-74
2020/12/12 02:33:06;;;;;;;39.20;21.20;;;;;;;;;;6248334;23;20700;-74
2020/12/12 02:35:38;;;;;;;46.60;23.33;;;;;;;;;;6248019;23;20436;-75
2020/12/12 02:38:08;;;;;;;53.70;26.47;;;;;;;;;;6248270;23;20533;-76
2020/12/12 02:40:43;;;;;;;45.03;24.70;;;;;;;;;;6247510;23;20517;-75
2020/12/12 02:43:11;;;;;;;37.07;20.70;;;;;;;;;;6248145;23;20405;-74
2020/12/12 02:45:40;;;;;;;44.57;23.07;;;;;;;;;;6247276;23;20386;-74
2020/12/12 02:48:09;;;;;;;44.90;22.73;;;;;;;;;;6247582;23;20527;-73
2020/12/12 02:50:37;;;;;;;45.03;23.90;;;;;;;;;;6248111;23;20414;-74
2020/12/12 02:53:04;;;;;;;47.37;24.30;;;;;;;;;;6247741;23;20832;-74
2020/12/12 02:55:32;;;;;;;42.43;21.60;;;;;;;;;;6247472;23;20798;-74
2020/12/12 02:58:00;;;;;;;46.33;22.90;;;;;;;;;;6247012;23;20413;-74
2020/12/12 03:00:27;;;;;;;40.50;22.37;;;;;;;;;;6246964;23;20663;-74
2020/12/12 03:02:55;;;;;;;45.23;24.00;;;;;;;;;;6247760;23;20417;-74
2020/12/12 03:05:23;;;;;;;45.30;25.67;;;;;;;;;;6248389;23;20440;-74
2020/12/12 03:07:50;;;;;;;53.17;25.50;;;;;;;;;;6246929;23;20548;-75
2020/12/12 03:10:17;;;;;;;40.03;23.80;;;;;;;;;;6247419;23;20460;-74
2020/12/12 03:12:45;;;;;;;46.20;22.97;;;;;;;;;;6248443;23;20445;-74
2020/12/12 03:15:13;;;;;;;51.77;24.07;;;;;;;;;;6247772;23;20382;-74
2020/12/12 03:17:41;;;;;;;49.33;23.97;;;;;;;;;;6247406;23;20830;-74
2020/12/12 03:20:09;;;;;;;53.40;25.87;;;;;;;;;;6247884;23;20878;-74
2020/12/12 03:22:36;;;;;;;36.47;18.37;;;;;;;;;;6246827;23;20413;-74
2020/12/12 03:25:04;;;;;;;47.13;25.83;;;;;;;;;;6247349;23;20437;-74
2020/12/12 03:27:34;;;;;;;49.23;25.93;;;;;;;;;;6246488;23;20457;-75
2020/12/12 03:30:02;;;;;;;54.07;26.70;;;;;;;;;;6247355;23;20422;-75
2020/12/12 03:32:30;;;;;;;52.30;24.53;;;;;;;;;;6248843;23;20419;-74
2020/12/12 03:34:58;;;;;;;48.67;22.90;;;;;;;;;;6248996;23;20811;-74
2020/12/12 03:37:25;;;;;;;51.30;25.83;;;;;;;;;;6249758;23;20824;-74
2020/12/12 03:39:52;;;;;;;50.00;25.67;;;;;;;;;;6248484;23;20421;-75
2020/12/12 03:42:20;;;;;;;48.27;25.73;;;;;;;;;;6248996;23;20698;-74
2020/12/12 03:44:47;;;;;;;49.30;23.80;;;;;;;;;;6249233;23;20390;-74
2020/12/12 03:47:15;;;;;;;51.37;23.57;;;;;;;;;;6248956;23;20540;-74
2020/12/12 03:49:43;;;;;;;45.50;23.10;;;;;;;;;;6248654;23;20680;-74
2020/12/12 03:52:11;;;;;;;44.27;21.00;;;;;;;;;;6249091;23;20668;-74
2020/12/12 03:54:39;;;;;;;47.00;24.37;;;;;;;;;;6249206;23;20923;-74
2020/12/12 03:57:07;;;;;;;48.90;25.40;;;;;;;;;;6248646;23;20481;-74
2020/12/12 03:59:34;;;;;;;51.77;24.43;;;;;;;;;;6248757;23;20757;-74
2020/12/12 04:02:02;;;;;;;54.07;26.70;;;;;;;;;;6248744;23;20393;-74
2020/12/12 04:04:31;;;;;;;49.80;24.57;;;;;;;;;;6249202;23;20694;-74
2020/12/12 04:06:59;;;;;;;51.43;25.90;;;;;;;;;;6248969;23;20859;-74
2020/12/12 04:09:26;;;;;;;56.03;24.70;;;;;;;;;;6249928;23;20712;-74
2020/12/12 04:11:53;;;;;;;51.73;25.40;;;;;;;;;;6248675;23;20390;-74
2020/12/12 04:14:21;;;;;;;52.00;26.70;;;;;;;;;;6248531;23;20590;-74
2020/12/12 04:16:50;;;;;;;53.23;25.97;;;;;;;;;;6248344;23;20434;-75
2020/12/12 04:19:17;;;;;;;48.00;24.27;;;;;;;;;;6248844;23;20386;-74
2020/12/12 04:21:45;;;;;;;45.00;24.30;;;;;;;;;;6248478;23;20410;-74
2020/12/12 04:24:13;;;;;;;58.10;27.50;;;;;;;;;;6248629;23;20477;-74
2020/12/12 04:26:42;;;;;;;51.20;24.63;;;;;;;;;;6248637;23;20441;-73
2020/12/12 04:29:09;;;;;;;48.37;26.73;;;;;;;;;;6250233;23;20410;-74
2020/12/12 04:31:36;;;;;;;51.33;27.57;;;;;;;;;;6248938;23;20430;-74
2020/12/12 04:34:03;;;;;;;47.53;25.40;;;;;;;;;;6250108;23;20410;-74
2020/12/12 04:36:33;;;;;;;50.80;25.37;;;;;;;;;;6248521;23;20410;-74
2020/12/12 04:39:00;;;;;;;54.00;26.27;;;;;;;;;;6248935;23;20422;-74
2020/12/12 04:41:29;;;;;;;51.97;22.70;;;;;;;;;;6248935;23;20448;-73
2020/12/12 04:43:57;;;;;;;51.40;24.30;;;;;;;;;;6248476;23;20424;-74
2020/12/12 04:46:25;;;;;;;55.90;26.60;;;;;;;;;;6249049;23;20392;-74
2020/12/12 04:48:52;;;;;;;57.13;26.73;;;;;;;;;;6250295;23;20508;-74
2020/12/12 04:51:19;;;;;;;55.00;25.07;;;;;;;;;;6248912;23;20866;-74
2020/12/12 04:53:48;;;;;;;49.37;26.60;;;;;;;;;;6249245;23;20490;-74
2020/12/12 04:56:23;;;;;;;57.93;27.60;;;;;;;;;;6248392;23;20404;-74
2020/12/12 04:58:53;;;;;;;49.00;26.40;;;;;;;;;;6248566;23;20409;-74
2020/12/12 05:01:20;;;;;;;55.17;27.90;;;;;;;;;;6249455;23;20386;-74
2020/12/12 05:03:48;;;;;;;52.57;27.03;;;;;;;;;;6249275;23;20421;-74
2020/12/12 05:06:18;;;;;;;49.67;27.03;;;;;;;;;;6248754;23;20401;-74
2020/12/12 05:08:46;;;;;;;52.07;26.30;;;;;;;;;;6248885;23;20409;-74
2020/12/12 05:11:13;;;;;;;55.70;30.43;;;;;;;;;;6248605;23;20750;-75
2020/12/12 05:13:40;;;;;;;54.60;27.20;;;;;;;;;;6247763;23;20843;-74
2020/12/12 05:16:09;;;;;;;45.90;23.70;;;;;;;;;;6248718;23;20493;-74
2020/12/12 05:18:36;;;;;;;47.60;25.27;;;;;;;;;;6247796;23;20413;-74
2020/12/12 05:21:05;;;;;;;54.57;26.70;;;;;;;;;;6247952;23;20677;-74
2020/12/12 05:23:33;;;;;;;48.10;23.10;;;;;;;;;;6248370;23;20422;-74
2020/12/12 05:26:01;;;;;;;51.20;25.27;;;;;;;;;;6248394;23;20390;-74
2020/12/12 05:28:28;;;;;;;48.57;26.33;;;;;;;;;;6249340;23;20764;-74
2020/12/12 05:30:59;;;;;;;49.20;26.07;;;;;;;;;;6249017;23;20396;-73
2020/12/12 05:33:30;;;;;;;48.27;25.20;;;;;;;;;;6249902;23;20421;-74
2020/12/12 05:36:00;;;;;;;58.60;24.90;;;;;;;;;;6248619;23;20398;-74
2020/12/12 05:38:27;;;;;;;46.97;25.20;;;;;;;;;;6248728;23;20414;-74
2020/12/12 05:40:55;;;;;;;53.30;26.10;;;;;;;;;;6248340;23;20401;-74
2020/12/12 05:43:29;;;;;;;52.00;27.10;;;;;;;;;;6248459;23;20421;-74
2020/12/12 05:45:57;;;;;;;52.43;25.73;;;;;;;;;;6248366;23;20394;-74
2020/12/12 05:48:24;;;;;;;48.17;27.30;;;;;;;;;;6248637;23;20452;-74
2020/12/12 05:50:55;;;;;;;52.90;26.53;;;;;;;;;;6249094;23;20450;-74
2020/12/12 05:53:23;;;;;;;55.87;25.33;;;;;;;;;;6248691;23;20401;-74
2020/12/12 05:55:50;;;;;;;54.93;26.80;;;;;;;;;;6248693;23;20425;-74
2020/12/12 05:58:18;;;;;;;49.33;25.70;;;;;;;;;;6247595;23;20378;-74
2020/12/12 06:00:46;;;;;;;61.63;28.30;;;;;;;;;;6247727;23;20414;-74
2020/12/12 06:03:22;;;;;;;47.97;25.10;;;;;;;;;;6247542;23;20417;-74
2020/12/12 06:05:51;;;;;;;55.73;26.87;;;;;;;;;;6247917;23;20409;-74
2020/12/12 06:08:24;;;;;;;58.37;27.57;;;;;;;;;;6247482;23;20462;-74
2020/12/12 06:10:54;;;;;;;53.23;28.17;;;;;;;;;;6248346;23;20421;-74
2020/12/12 06:13:23;;;;;;;50.70;25.13;;;;;;;;;;6248070;23;20370;-74
2020/12/12 06:15:52;;;;;;;55.17;25.60;;;;;;;;;;6248700;23;20422;-73
2020/12/12 06:18:23;;;;;;;52.87;27.60;;;;;;;;;;6247968;23;20390;-74
2020/12/12 06:20:52;;;;;;;52.93;24.90;;;;;;;;;;6248101;23;20429;-74
2020/12/12 06:23:21;;;;;;;54.30;26.17;;;;;;;;;;6247581;23;20677;-74
2020/12/12 06:25:48;;;;;;;53.23;26.70;;;;;;;;;;6247541;23;20413;-74
2020/12/12 06:28:23;;;;;;;56.43;26.00;;;;;;;;;;6248240;23;20502;-74
2020/12/12 06:30:51;;;;;;;55.87;26.53;;;;;;;;;;6248491;23;20994;-74
2020/12/12 06:33:19;;;;;;;59.87;28.67;;;;;;;;;;6247910;23;20400;-74
2020/12/12 06:35:47;;;;;;;53.27;26.67;;;;;;;;;;6247961;23;20421;-74
2020/12/12 06:38:25;;;;;;;53.40;27.63;;;;;;;;;;6247987;23;20480;-74
2020/12/12 06:40:57;;;;;;;54.60;27.80;;;;;;;;;;6248133;23;20425;-75
2020/12/12 06:43:33;;;;;;;56.63;27.30;;;;;;;;;;6248173;23;20405;-74
2020/12/12 06:46:02;;;;;;;50.03;25.00;;;;;;;;;;6247457;23;20475;-74
2020/12/12 06:48:30;;;;;;;49.23;24.87;;;;;;;;;;6247805;23;20462;-74
2020/12/12 06:51:01;;;;;;;56.70;27.30;;;;;;;;;;6247550;23;20422;-74
2020/12/12 06:53:31;;;;;;;49.73;24.60;;;;;;;;;;6247083;23;20416;-74
2020/12/12 06:56:12;;;;;;;44.23;24.63;;;;;;;;;;6247974;23;20418;-75
2020/12/12 06:58:40;;;;;;;51.80;28.10;;;;;;;;;;6246269;23;20398;-75
2020/12/12 07:01:25;;;;;;;48.17;25.53;;;;;;;;;;6247384;23;20413;-75
2020/12/12 07:03:57;;;;;;;48.80;24.13;;;;;;;;;;6247727;23;20396;-74
2020/12/12 07:06:26;;;;;;;45.90;25.30;;;;;;;;;;6247735;23;20409;-74
2020/12/12 07:08:58;;;;;;;55.93;27.33;;;;;;;;;;6246582;23;20433;-75
2020/12/12 07:11:26;;;;;;;47.73;24.77;;;;;;;;;;6248517;23;20417;-75
2020/12/12 07:13:54;;;;;;;50.73;25.50;;;;;;;;;;6246541;23;20835;-74
2020/12/12 07:16:22;;;;;;;54.43;26.03;;;;;;;;;;6247015;23;20422;-74
2020/12/12 07:18:51;;;;;;;51.90;26.87;;;;;;;;;;6248053;23;20417;-74
2020/12/12 07:21:18;;;;;;;48.10;24.50;;;;;;;;;;6247245;23;20414;-74
2020/12/12 07:23:47;;;;;;;46.57;24.80;;;;;;;;;;6248459;23;20484;-75
2020/12/12 07:26:16;;;;;;;45.70;26.10;;;;;;;;;;6247853;23;20855;-74
2020/12/12 07:28:43;;;;;;;45.03;25.27;;;;;;;;;;6246287;23;20445;-74
2020/12/12 07:31:11;;;;;;;43.63;23.50;;;;;;;;;;6247251;23;20664;-74
2020/12/12 07:33:47;;;;;;;43.40;23.50;;;;;;;;;;6247687;23;21009;-74
2020/12/12 07:36:14;;;;;;;47.97;23.80;;;;;;;;;;6247765;23;20389;-74
2020/12/12 07:38:42;;;;;;;49.60;24.20;;;;;;;;;;6247844;23;20414;-74
2020/12/12 07:41:13;;;;;;;48.27;24.47;;;;;;;;;;6246375;23;20398;-75
2020/12/12 07:43:57;;;;;;;40.17;23.07;;;;;;;;;;6247281;23;20424;-75
2020/12/12 07:49:10;;;;;;;48.57;24.73;;;;;;;;;;6241534;23;20463;-74
2020/12/12 07:51:37;;;;;;;46.33;24.50;;;;;;;;;;6247095;23;20386;-74
2020/12/12 07:54:13;;;;;;;43.77;24.70;;;;;;;;;;6247054;23;20409;-74
2020/12/12 07:56:53;;;;;;;47.03;26.60;;;;;;;;;;6246015;23;20416;-74
2020/12/12 07:59:22;;;;;;;50.80;23.87;;;;;;;;;;6246973;23;20722;-74
2020/12/12 08:01:53;;;;;;;40.87;22.10;;;;;;;;;;6246242;23;20386;-75
2020/12/12 08:04:29;;;;;;;41.27;23.60;;;;;;;;;;6247224;23;20414;-74
2020/12/12 08:07:02;;;;;;;47.17;23.80;;;;;;;;;;6247409;23;20731;-73
2020/12/12 08:09:30;;;;;;;40.73;22.63;;;;;;;;;;6246273;23;20689;-74
2020/12/12 08:11:58;;;;;;;44.57;24.70;;;;;;;;;;6247083;23;20401;-74
2020/12/12 08:14:32;;;;;;;47.70;26.10;;;;;;;;;;6246186;23;20420;-74
2020/12/12 08:17:00;;;;;;;47.43;24.13;;;;;;;;;;6246261;23;20410;-74
2020/12/12 08:19:34;;;;;;;42.00;22.47;;;;;;;;;;6246286;23;20409;-74
2020/12/12 08:22:14;;;;;;;45.60;24.27;;;;;;;;;;6247886;23;20479;-74
2020/12/12 08:24:46;;;;;;;42.17;24.43;;;;;;;;;;6248583;23;20667;-74
2020/12/12 08:27:17;;;;;;;41.10;23.23;;;;;;;;;;6248780;23;20875;-76
2020/12/12 08:29:49;;;;;;;39.13;22.17;;;;;;;;;;6248723;23;20422;-73
2020/12/12 08:32:48;;;;;;;37.97;24.00;;;;;;;;;;6249409;23;20402;-75
2020/12/12 08:35:19;;;;;;;43.27;23.40;;;;;;;;;;6165948;23;20708;-73
2020/12/12 08:37:59;;;;;;;45.50;22.10;;;;;;;;;;6248546;23;20383;-73
2020/12/12 08:40:45;;;;;;;42.33;23.20;;;;;;;;;;6248031;23;20479;-73
2020/12/12 08:45:59;;;;;;;46.63;23.13;;;;;;;;;;6242684;23;20422;-74
2020/12/12 08:48:58;;;;;;;45.07;23.50;;;;;;;;;;6248699;23;20438;-74
2020/12/12 08:51:38;;;;;;;41.47;21.57;;;;;;;;;;6248711;23;20669;-73
2020/12/12 08:54:19;;;;;;;42.97;23.57;;;;;;;;;;6249164;23;20830;-74
2020/12/12 08:56:49;;;;;;;44.33;23.57;;;;;;;;;;6246626;23;20405;-74
2020/12/12 08:59:21;;;;;;;45.03;22.80;;;;;;;;;;6248699;23;20874;-74
2020/12/12 09:05:11;;;;;;;40.50;21.33;;;;;;;;;;5159109;27;20343;-73
2020/12/12 09:07:48;;;;;;;39.93;22.20;;;;;;;;;;5137236;27;20450;-75
2020/12/12 09:10:16;;;;;;;49.33;24.70;;;;;;;;;;5133062;27;20544;-72
2020/12/12 09:12:48;;;;;;;43.23;22.20;;;;;;;;;;5146266;27;21078;-73
2020/12/12 09:15:16;;;;;;;38.60;22.70;;;;;;;;;;5117271;27;20578;-75
2020/12/12 09:17:47;;;;;;;43.50;22.67;;;;;;;;;;5113063;27;20871;-74
2020/12/12 09:20:15;;;;;;;40.00;21.87;;;;;;;;;;5127486;27;20785;-75
2020/12/12 09:22:47;;;;;;;35.77;20.27;;;;;;;;;;5122927;27;20552;-73
2020/12/12 09:25:14;;;;;;;42.27;24.73;;;;;;;;;;5115014;27;20455;-73
2020/12/12 09:27:43;;;;;;;37.37;21.20;;;;;;;;;;5113434;27;20519;-74
2020/12/12 09:30:21;;;;;;;37.50;22.10;;;;;;;;;;5116952;27;20469;-74
2020/12/12 09:33:03;;;;;;;37.50;24.40;;;;;;;;;;5123125;27;20453;-74
2020/12/12 09:35:33;;;;;;;40.80;21.87;;;;;;;;;;5127275;27;20526;-75
2020/12/12 09:38:07;;;;;;;44.40;24.40;;;;;;;;;;5124187;27;20501;-74
2020/12/12 09:40:48;;;;;;;42.63;21.77;;;;;;;;;;5115776;27;20885;-73
2020/12/12 09:43:17;;;;;;;46.63;21.20;;;;;;;;;;5115701;27;20498;-74
2020/12/12 09:45:52;;;;;;;46.47;22.07;;;;;;;;;;5118498;27;20461;-73
2020/12/12 09:48:23;;;;;;;38.80;22.63;;;;;;;;;;5131098;27;20457;-73
2020/12/12 09:50:56;;;;;;;41.90;23.90;;;;;;;;;;5123109;27;20443;-73
2020/12/12 09:53:28;;;;;;;40.20;23.17;;;;;;;;;;5113751;27;20559;-73
2020/12/12 09:55:57;;;;;;;43.30;22.33;;;;;;;;;;5119921;27;20469;-73
2020/12/12 09:58:26;;;;;;;39.83;22.33;;;;;;;;;;5130673;27;20470;-73
2020/12/12 10:00:54;;;;;;;47.60;24.47;;;;;;;;;;5114347;27;20463;-75
2020/12/12 10:03:22;;;;;;;40.53;24.77;;;;;;;;;;5113429;27;20487;-74
2020/12/12 10:05:52;;;;;;;49.13;28.17;;;;;;;;;;5122737;27;20434;-74
2020/12/12 10:08:23;;;;;;;41.57;22.47;;;;;;;;;;5122399;27;20758;-74
2020/12/12 10:10:57;;;;;;;40.27;22.60;;;;;;;;;;5112136;27;20459;-73
2020/12/12 10:13:25;;;;;;;49.80;25.20;;;;;;;;;;5115710;27;20466;-73
2020/12/12 10:16:02;;;;;;;46.40;21.87;;;;;;;;;;5105381;27;20884;-75
2020/12/12 10:18:36;;;;;;;47.33;23.63;;;;;;;;;;5111470;27;20829;-75
2020/12/12 10:21:04;;;;;;;38.10;22.50;;;;;;;;;;5098905;27;20534;-73
2020/12/12 10:23:36;;;;;;;40.33;22.27;;;;;;;;;;5117586;27;20491;-74
2020/12/12 10:26:03;;;;;;;42.90;24.90;;;;;;;;;;5111618;27;20453;-74
2020/12/12 10:28:31;;;;;;;39.20;21.27;;;;;;;;;;5107092;27;20455;-73
2020/12/12 10:31:05;;;;;;;39.70;22.60;;;;;;;;;;5103823;27;20460;-73
2020/12/12 10:33:32;;;;;;;46.77;23.67;;;;;;;;;;5113344;27;20878;-74
2020/12/12 10:36:01;;;;;;;40.90;22.20;;;;;;;;;;5110783;27;20476;-72
2020/12/12 10:38:34;;;;;;;36.97;23.50;;;;;;;;;;5107727;27;20800;-73
2020/12/12 10:41:15;;;;;;;43.00;22.77;;;;;;;;;;5117566;27;20487;-73
2020/12/12 10:43:47;;;;;;;39.03;23.73;;;;;;;;;;5117946;27;20565;-73
2020/12/12 10:46:21;;;;;;;43.57;22.97;;;;;;;;;;5119910;27;20475;-73
2020/12/12 10:48:48;;;;;;;38.60;23.57;;;;;;;;;;5119419;27;20455;-73
2020/12/12 10:51:17;;;;;;;44.67;23.87;;;;;;;;;;5117133;27;20451;-72
2020/12/12 10:54:02;;;;;;;43.27;22.07;;;;;;;;;;5115570;27;20481;-73
2020/12/12 10:56:31;;;;;;;40.10;22.80;;;;;;;;;;5106332;27;20489;-73
2020/12/12 10:59:01;;;;;;;45.33;24.00;;;;;;;;;;5107805;27;20528;-73
2020/12/12 11:01:30;;;;;;;40.00;23.10;;;;;;;;;;5097550;27;20458;-74
2020/12/12 11:03:59;;;;;;;41.70;22.23;;;;;;;;;;5117318;27;20569;-74
2020/12/12 11:06:26;;;;;;;36.47;21.53;;;;;;;;;;5113981;27;20597;-73
2020/12/12 11:08:57;;;;;;;43.23;22.70;;;;;;;;;;5102726;27;20439;-73
2020/12/12 11:11:25;;;;;;;41.07;22.67;;;;;;;;;;5102009;27;20865;-74
2020/12/12 11:13:53;;;;;;;42.17;21.83;;;;;;;;;;5113371;27;20455;-73
2020/12/12 11:16:20;;;;;;;38.97;22.17;;;;;;;;;;5101139;27;20456;-75
2020/12/12 11:18:53;;;;;;;37.87;23.20;;;;;;;;;;5104991;27;20935;-74
2020/12/12 11:21:40;;;;;;;;;;;;;;;;;;;;;
2020/12/12 11:24:08;;;;;;;40.27;24.23;;;;;;;;;;5114493;27;20502;-74
2020/12/12 11:26:36;;;;;;;39.70;22.37;;;;;;;;;;5101789;27;20459;-73
2020/12/12 11:29:04;;;;;;;39.27;22.23;;;;;;;;;;5100036;27;20480;-73
2020/12/12 11:31:33;;;;;;;44.93;24.17;;;;;;;;;;5118172;27;20558;-73
2020/12/12 11:34:07;;;;;;;37.73;21.90;;;;;;;;;;5103061;27;20456;-73
2020/12/12 11:36:53;;;;;;;40.50;23.30;;;;;;;;;;5102143;27;20467;-73
2020/12/12 11:39:25;;;;;;;38.80;22.00;;;;;;;;;;5097208;27;20464;-73
2020/12/12 11:47:43;;;;;;;43.13;20.43;;;;;;;;;;5083502;27;20454;-75
2020/12/12 11:50:14;;;;;;;35.27;22.77;;;;;;;;;;5118856;27;20454;-74
2020/12/12 11:52:43;;;;;;;40.40;22.13;;;;;;;;;;5117548;27;20877;-74
2020/12/12 11:55:21;;;;;;;34.83;22.33;;;;;;;;;;5099895;27;20459;-73
2020/12/12 11:57:57;;;;;;;32.57;20.80;;;;;;;;;;5102804;27;20600;-73
2020/12/12 12:00:34;;;;;;;35.80;22.77;;;;;;;;;;5115013;27;20469;-72
2020/12/12 12:03:01;;;;;;;36.33;22.40;;;;;;;;;;5117045;27;20495;-74
2020/12/12 12:05:32;;;;;;;37.57;20.70;;;;;;;;;;5103234;27;20490;-74
2020/12/12 12:13:37;;;;;;;44.40;23.20;;;;;;;;;;5113102;27;20446;-74
2020/12/12 12:16:19;;;;;;;39.83;22.57;;;;;;;;;;5114043;27;20447;-74
2020/12/12 12:18:47;;;;;;;40.33;22.40;;;;;;;;;;5110502;27;20449;-75
2020/12/12 12:21:15;;;;;;;37.03;20.47;;;;;;;;;;5097017;27;20568;-73
2020/12/12 12:23:42;;;;;;;35.83;22.40;;;;;;;;;;5095976;27;21028;-73
2020/12/12 12:26:13;;;;;;;40.67;24.87;;;;;;;;;;5096092;27;20467;-73
2020/12/12 12:28:40;;;;;;;34.97;20.20;;;;;;;;;;5102488;27;20523;-73
2020/12/12 12:31:09;;;;;;;37.47;21.53;;;;;;;;;;5095134;27;20452;-73
2020/12/12 12:33:36;;;;;;;37.77;20.93;;;;;;;;;;5095914;27;20760;-76
2020/12/12 12:36:03;;;;;;;37.40;23.20;;;;;;;;;;5096055;27;20468;-75
2020/12/12 12:38:30;;;;;;;36.53;20.80;;;;;;;;;;5096828;27;20567;-74
2020/12/12 12:40:58;;;;;;;37.43;21.00;;;;;;;;;;5109534;27;20757;-74
2020/12/12 12:43:25;;;;;;;36.13;22.50;;;;;;;;;;5097230;27;20512;-74
2020/12/12 12:45:52;;;;;;;37.23;21.87;;;;;;;;;;5096482;27;20570;-74
2020/12/12 12:48:20;;;;;;;38.73;20.37;;;;;;;;;;5097531;27;20460;-75
2020/12/12 12:50:51;;;;;;;35.97;20.63;;;;;;;;;;5115631;27;20592;-74
2020/12/12 12:53:18;;;;;;;39.50;20.60;;;;;;;;;;5103684;27;20543;-74
2020/12/12 12:55:45;;;;;;;31.90;20.57;;;;;;;;;;5095717;27;20555;-74
2020/12/12 12:58:13;;;;;;;36.60;20.87;;;;;;;;;;5095409;27;20452;-74
2020/12/12 13:00:40;;;;;;;39.37;21.90;;;;;;;;;;5099301;27;20474;-75
2020/12/12 13:03:07;;;;;;;39.40;20.10;;;;;;;;;;5099429;27;20927;-74
2020/12/12 13:05:36;;;;;;;32.57;19.97;;;;;;;;;;5095954;27;20901;-73
2020/12/12 13:08:12;;;;;;;40.03;21.90;;;;;;;;;;5109950;27;20473;-73
2020/12/12 13:10:39;;;;;;;36.37;20.77;;;;;;;;;;5097179;27;20483;-73
2020/12/12 13:13:07;;;;;;;35.93;21.90;;;;;;;;;;5101775;27;20483;-73
2020/12/12 13:15:34;;;;;;;34.37;20.30;;;;;;;;;;5106801;27;20941;-73
2020/12/12 13:18:07;;;;;;;39.83;20.03;;;;;;;;;;5114006;27;20478;-74
2020/12/12 13:20:43;;;;;;;41.67;22.30;;;;;;;;;;5098422;27;21001;-74
2020/12/12 13:23:13;;;;;;;33.10;19.60;;;;;;;;;;5095959;27;20515;-74
2020/12/12 13:31:32;;;;;;;35.97;20.67;;;;;;;;;;5098014;27;20985;-74
2020/12/12 13:34:13;;;;;;;33.27;20.50;;;;;;;;;;5106243;27;20512;-74
2020/12/12 13:36:44;;;;;;;34.20;19.20;;;;;;;;;;5096652;27;20456;-75
2020/12/12 13:39:20;;;;;;;34.60;20.10;;;;;;;;;;5096482;27;20563;-75
2020/12/12 13:41:53;;;;;;;33.87;19.73;;;;;;;;;;5101490;27;20580;-76
2020/12/12 13:47:33;;;;;;;32.97;20.17;;;;;;;;;;5093153;27;20535;-74
2020/12/12 13:53:19;;;;;;;37.37;20.47;;;;;;;;;;5062605;28;20889;-74
2020/12/12 13:56:07;;;;;;;32.47;18.40;;;;;;;;;;5058874;28;20468;-73
2020/12/12 13:58:41;;;;;;;39.50;19.83;;;;;;;;;;5064944;28;20453;-76
2020/12/12 14:01:36;;;;;;;32.47;19.40;;;;;;;;;;5066231;28;20543;-73
2020/12/12 14:04:12;;;;;;;34.10;20.33;;;;;;;;;;5057787;28;20843;-76
2020/12/12 14:07:16;;;;;;;36.60;21.57;;;;;;;;;;5068878;28;20434;-74
2020/12/12 14:24:16;;;;;;;36.53;19.73;;;;;;;;;;5098795;28;20472;-73
2020/12/12 14:29:36;;;;;;;32.50;18.87;;;;;;;;;;5048125;28;20460;-74
2020/12/12 14:32:26;;;;;;;34.63;19.83;;;;;;;;;;5038143;28;20816;-74
2020/12/12 14:35:08;;;;;;;28.40;17.47;;;;;;;;;;5101889;27;20866;-74
2020/12/12 14:37:35;;;;;;;32.23;19.10;;;;;;;;;;5119345;27;20462;-74
2020/12/12 14:40:02;;;;;;;30.73;18.17;;;;;;;;;;5108644;27;20459;-74
2020/12/12 14:42:54;;;;;;;37.30;19.20;;;;;;;;;;5115840;27;20888;-74
2020/12/12 14:45:37;;;;;;;35.27;18.30;;;;;;;;;;5098786;27;20456;-74
2020/12/12 14:48:06;;;;;;;33.33;18.87;;;;;;;;;;5096401;27;20544;-74
2020/12/12 14:53:52;;;;;;;43.90;24.10;;;;;;;;;;5066400;27;20534;-75
2020/12/12 14:56:21;;;;;;;30.37;17.90;;;;;;;;;;5118013;27;20473;-75
2020/12/12 14:58:50;;;;;;;28.30;17.03;;;;;;;;;;5114224;27;20820;-74
2020/12/12 15:01:17;;;;;;;30.03;17.83;;;;;;;;;;5108775;27;20821;-74
2020/12/12 15:03:47;;;;;;;32.63;19.20;;;;;;;;;;5098226;27;20553;-74
2020/12/12 15:06:20;;;;;;;30.70;18.37;;;;;;;;;;5112629;27;20891;-74
2020/12/12 15:08:54;;;;;;;32.70;18.10;;;;;;;;;;5108994;27;20477;-74
2020/12/12 15:11:33;;;;;;;28.33;17.97;;;;;;;;;;5112018;27;20499;-73
2020/12/12 15:14:04;;;;;;;30.90;19.23;;;;;;;;;;5098584;27;20472;-74
2020/12/12 15:16:31;;;;;;;29.30;17.90;;;;;;;;;;5104991;27;21011;-74
2020/12/12 15:19:28;;;;;;;28.23;17.77;;;;;;;;;;5107657;27;20467;-73
2020/12/12 15:21:56;;;;;;;31.73;18.47;;;;;;;;;;5109834;27;20485;-73
2020/12/12 15:24:27;;;;;;;32.30;17.83;;;;;;;;;;5112075;27;20491;-74
2020/12/12 15:26:56;;;;;;;29.10;17.90;;;;;;;;;;5116957;27;20719;-74
2020/12/12 15:29:32;;;;;;;30.93;17.60;;;;;;;;;;5103379;27;20896;-73
2020/12/12 15:32:05;;;;;;;31.40;20.33;;;;;;;;;;5105829;27;20462;-74